createdAt,value
2022-09-10T00:01:07.506Z,2.20
2022-09-10T00:06:22.508Z,2.20
2022-09-10T00:08:49.793Z,2.20
2022-09-10T00:13:52.863Z,2.13
2022-09-10T00:16:19.555Z,2.13
2022-09-10T00:21:46.070Z,2.13
2022-09-10T00:24:18.227Z,2.35
2022-09-10T00:26:48.453Z,1.85
2022-09-10T00:29:17.220Z,2.70
2022-09-10T00:31:54.020Z,2.55
2022-09-10T00:34:25.786Z,2.40
2022-09-10T00:37:08.243Z,2.85
2022-09-10T00:39:42.507Z,2.88
2022-09-10T00:42:14.733Z,3.28
2022-09-10T00:44:41.612Z,3.60
2022-09-10T00:47:15.729Z,3.13
2022-09-10T00:50:05.018Z,2.67
2022-09-10T00:52:42.786Z,3.05
2022-09-10T00:55:11.637Z,2.65
2022-09-10T00:57:47.627Z,2.80
2022-09-10T01:00:18.351Z,3.13
2022-09-10T01:02:48.509Z,3.40
2022-09-10T01:05:17.932Z,3.00
2022-09-10T01:07:52.739Z,2.75
2022-09-10T01:10:31.077Z,2.90
2022-09-10T01:16:11.036Z,2.55
2022-09-10T01:19:15.374Z,2.90
2022-09-10T01:22:13.976Z,2.50
2022-09-10T01:25:11.380Z,3.05
2022-09-10T01:27:51.720Z,2.83
2022-09-10T01:33:34.160Z,2.83
2022-09-10T01:36:11.111Z,2.70
2022-09-10T01:38:38.754Z,2.42
2022-09-10T01:41:25.623Z,2.67
2022-09-10T01:43:53.707Z,2.72
2022-09-10T01:49:50.926Z,2.30
2022-09-10T01:52:29.329Z,2.47
2022-09-10T01:55:25.405Z,2.28
2022-09-10T01:58:29.098Z,2.40
2022-09-10T02:01:35.026Z,2.47
2022-09-10T02:04:07.797Z,2.30
2022-09-10T02:06:45.809Z,2.50
2022-09-10T02:09:36.121Z,2.88
2022-09-10T02:12:27.429Z,2.45
2022-09-10T02:15:09.783Z,2.50
2022-09-10T02:17:47.919Z,2.58
2022-09-10T02:20:16.558Z,2.83
2022-09-10T02:23:03.150Z,3.00
2022-09-10T02:25:35.073Z,2.92
2022-09-10T02:28:03.357Z,2.80
2022-09-10T02:30:33.855Z,2.75
2022-09-10T02:33:01.537Z,3.25
2022-09-10T02:35:34.476Z,3.40
2022-09-10T02:38:07.045Z,3.33
2022-09-10T02:40:33.772Z,3.45
2022-09-10T02:43:07.657Z,3.63
2022-09-10T02:45:38.507Z,2.90
2022-09-10T02:48:13.176Z,3.10
2022-09-10T02:50:50.673Z,3.20
2022-09-10T02:53:31.844Z,3.70
2022-09-10T02:55:59.749Z,2.85
2022-09-10T02:58:42.963Z,3.20
2022-09-10T03:01:28.672Z,2.50
2022-09-10T03:04:05.839Z,2.60
2022-09-10T03:06:44.232Z,2.05
2022-09-10T03:09:11.062Z,2.03
2022-09-10T03:11:46.972Z,2.50
2022-09-10T03:14:21.721Z,2.17
2022-09-10T03:17:00.990Z,2.10
2022-09-10T03:19:40.842Z,2.10
2022-09-10T03:22:07.370Z,1.95
2022-09-10T03:25:05.152Z,1.80
2022-09-10T03:27:39.499Z,2.40
2022-09-10T03:30:13.087Z,1.90
2022-09-10T03:32:57.702Z,1.90
2022-09-10T03:35:32.409Z,1.90
2022-09-10T03:37:59.298Z,1.77
2022-09-10T03:40:34.697Z,1.70
2022-09-10T03:43:15.749Z,1.80
2022-09-10T03:45:54.176Z,2.20
2022-09-10T03:48:43.276Z,1.90
2022-09-10T03:51:13.495Z,1.63
2022-09-10T03:53:40.698Z,1.65
2022-09-10T03:56:11.664Z,1.90
2022-09-10T04:04:18.744Z,2.35
2022-09-10T04:06:53.718Z,1.77
2022-09-10T04:09:39.056Z,1.70
2022-09-10T04:12:14.706Z,1.92
2022-09-10T04:14:46.492Z,1.80
2022-09-10T04:17:15.377Z,1.88
2022-09-10T04:20:04.674Z,2.10
2022-09-10T04:22:37.240Z,2.25
2022-09-10T04:25:21.776Z,2.50
2022-09-10T04:27:55.215Z,1.80
2022-09-10T04:30:24.581Z,2.17
2022-09-10T04:33:13.675Z,2.28
2022-09-10T04:35:57.484Z,2.67
2022-09-10T04:38:30.749Z,2.70
2022-09-10T04:41:06.288Z,2.63
2022-09-10T04:43:34.364Z,2.33
2022-09-10T04:46:00.890Z,2.50
2022-09-10T04:48:33.780Z,2.88
2022-09-10T04:51:17.987Z,2.90
2022-09-10T04:53:58.722Z,2.85
2022-09-10T04:56:41.138Z,2.63
2022-09-10T04:59:20.621Z,3.00
2022-09-10T05:02:03.899Z,3.20
2022-09-10T05:04:41.121Z,3.20
2022-09-10T05:07:10.036Z,3.45
2022-09-10T05:09:50.449Z,3.70
2022-09-10T05:12:23.297Z,4.07
2022-09-10T05:15:10.289Z,4.00
2022-09-10T05:17:36.897Z,4.22
2022-09-10T05:20:07.523Z,3.83
2022-09-10T05:22:55.906Z,4.03
2022-09-10T05:25:25.902Z,4.57
2022-09-10T05:28:10.387Z,4.35
2022-09-10T05:30:37.022Z,4.13
2022-09-10T05:33:15.169Z,4.47
2022-09-10T05:35:50.774Z,4.43
2022-09-10T05:38:27.728Z,4.45
2022-09-10T05:40:58.094Z,3.80
2022-09-10T05:43:27.069Z,4.30
2022-09-10T05:45:57.123Z,4.78
2022-09-10T05:48:25.776Z,4.75
2022-09-10T05:51:02.820Z,4.50
2022-09-10T05:53:29.674Z,5.53
2022-09-10T05:55:56.818Z,4.15
2022-09-10T05:58:36.115Z,4.85
2022-09-10T06:01:10.751Z,4.90
2022-09-10T06:03:46.240Z,5.55
2022-09-10T06:06:13.614Z,5.55
2022-09-10T06:09:04.832Z,5.30
2022-09-10T06:11:41.813Z,5.72
2022-09-10T06:14:08.918Z,5.95
2022-09-10T06:16:48.348Z,5.95
2022-09-10T06:22:03.810Z,6.40
2022-09-10T06:24:35.502Z,7.10
2022-09-10T06:27:09.125Z,7.10
2022-09-10T06:29:38.257Z,7.13
2022-09-10T06:32:05.146Z,6.32
2022-09-10T06:34:41.406Z,6.53
2022-09-10T06:37:08.628Z,7.03
2022-09-10T06:39:42.763Z,6.53
2022-09-10T06:42:13.898Z,6.80
2022-09-10T06:50:29.168Z,5.80
2022-09-10T06:52:59.367Z,5.78
2022-09-10T06:55:40.564Z,5.18
2022-09-10T06:58:11.639Z,5.45
2022-09-10T07:00:44.734Z,4.82
2022-09-10T07:03:12.587Z,5.18
2022-09-10T07:05:41.113Z,5.82
2022-09-10T07:08:08.415Z,5.07
2022-09-10T07:10:38.728Z,5.13
2022-09-10T07:13:09.161Z,5.13
2022-09-10T07:15:39.169Z,4.82
2022-09-10T07:18:05.811Z,4.80
2022-09-10T07:20:41.882Z,4.47
2022-09-10T07:23:12.797Z,4.45
2022-09-10T07:25:44.630Z,4.55
2022-09-10T07:28:25.728Z,4.05
2022-09-10T07:33:55.006Z,4.20
2022-09-10T07:36:21.965Z,3.90
2022-09-10T07:39:05.662Z,3.90
2022-09-10T07:41:47.677Z,3.85
2022-09-10T07:44:19.537Z,4.18
2022-09-10T07:46:47.797Z,4.07
2022-09-10T07:49:35.200Z,4.78
2022-09-10T07:52:04.489Z,4.82
2022-09-10T07:56:59.645Z,4.28
2022-09-10T07:59:27.989Z,4.45
2022-09-10T08:02:00.721Z,4.50
2022-09-10T08:04:41.540Z,4.30
2022-09-10T08:07:10.800Z,4.15
2022-09-10T08:12:16.103Z,4.50
2022-09-10T08:14:45.615Z,4.35
2022-09-10T08:17:23.413Z,4.80
2022-09-10T08:20:08.217Z,4.20
2022-09-10T08:22:37.462Z,4.03
2022-09-10T08:25:09.125Z,4.03
2022-09-10T08:27:38.662Z,4.90
2022-09-10T08:32:45.622Z,4.10
2022-09-10T08:35:17.618Z,4.13
2022-09-10T08:37:44.916Z,3.63
2022-09-10T08:40:22.884Z,3.90
2022-09-10T08:42:55.123Z,4.22
2022-09-10T08:45:35.546Z,3.90
2022-09-10T08:48:19.814Z,3.60
2022-09-10T08:51:00.340Z,3.50
2022-09-10T08:53:41.856Z,4.10
2022-09-10T08:56:20.192Z,3.75
2022-09-10T08:59:23.845Z,3.95
2022-09-10T09:02:11.403Z,3.65
2022-09-10T09:04:53.761Z,3.88
2022-09-10T09:07:25.244Z,4.05
2022-09-10T09:09:56.327Z,3.28
2022-09-10T09:12:35.523Z,3.35
2022-09-10T09:15:18.340Z,3.65
2022-09-10T09:18:26.748Z,5.57
2022-09-10T09:21:02.591Z,4.95
2022-09-10T09:23:51.775Z,4.90
2022-09-10T09:26:49.622Z,4.95
2022-09-10T09:29:28.098Z,5.95
2022-09-10T09:32:05.854Z,5.60
2022-09-10T09:34:50.696Z,6.18
2022-09-10T09:37:22.856Z,6.05
2022-09-10T09:40:16.332Z,6.82
2022-09-10T09:42:58.388Z,8.13
2022-09-10T09:45:35.107Z,7.05
2022-09-10T09:48:02.423Z,7.80
2022-09-10T09:50:31.569Z,8.27
2022-09-10T09:52:58.938Z,7.70
2022-09-10T09:55:34.801Z,6.68
2022-09-10T09:58:32.112Z,6.57
2022-09-10T10:01:05.155Z,6.25
2022-09-10T10:03:37.777Z,7.22
2022-09-10T10:06:06.129Z,5.93
2022-09-10T10:08:37.933Z,6.60
2022-09-10T10:11:05.557Z,4.82
2022-09-10T10:13:42.188Z,5.25
2022-09-10T10:16:24.445Z,4.70
2022-09-10T10:18:53.137Z,4.32
2022-09-10T10:21:22.701Z,4.13
2022-09-10T10:23:49.943Z,4.18
2022-09-10T10:26:33.694Z,3.53
2022-09-10T10:29:16.995Z,4.65
2022-09-10T10:31:46.513Z,3.90
2022-09-10T10:34:19.273Z,4.05
2022-09-10T10:37:16.634Z,3.95
2022-09-10T10:40:12.075Z,3.40
2022-09-10T10:43:02.156Z,3.33
2022-09-10T10:46:06.651Z,3.20
2022-09-10T10:48:48.485Z,3.22
2022-09-10T10:51:39.875Z,3.30
2022-09-10T10:54:21.924Z,3.20
2022-09-10T10:57:16.872Z,2.58
2022-09-10T10:59:59.769Z,2.83
2022-09-10T11:02:45.507Z,2.72
2022-09-10T11:05:39.129Z,3.50
2022-09-10T11:08:14.976Z,3.03
2022-09-10T11:11:05.882Z,4.60
2022-09-10T11:13:41.638Z,2.30
2022-09-10T11:16:36.516Z,2.15
2022-09-10T11:19:35.463Z,1.48
2022-09-10T11:22:16.349Z,1.83
2022-09-10T11:24:51.293Z,2.58
2022-09-10T11:27:24.074Z,1.60
2022-09-10T11:30:10.108Z,1.75
2022-09-10T11:32:51.576Z,1.90
2022-09-10T11:35:48.241Z,1.55
2022-09-10T11:38:31.216Z,1.70
2022-09-10T11:41:06.826Z,1.52
2022-09-10T11:43:45.840Z,1.20
2022-09-10T11:46:25.353Z,1.40
2022-09-10T11:49:05.393Z,1.20
2022-09-10T11:51:38.097Z,1.40
2022-09-10T11:54:09.882Z,1.42
2022-09-10T11:57:00.937Z,1.10
2022-09-10T11:59:45.114Z,1.13
2022-09-10T12:02:43.004Z,0.73
2022-09-10T12:05:29.813Z,1.13
2022-09-10T12:08:20.050Z,0.80
2022-09-10T12:11:06.734Z,0.90
2022-09-10T12:13:44.907Z,1.02
2022-09-10T12:16:24.670Z,0.95
2022-09-10T12:18:59.488Z,0.90
2022-09-10T12:21:44.376Z,1.58
2022-09-10T12:24:32.837Z,0.70
2022-09-10T12:27:10.955Z,0.88
2022-09-10T12:29:52.478Z,0.93
2022-09-10T12:32:20.669Z,1.20
2022-09-10T12:34:50.949Z,1.00
2022-09-10T12:37:20.737Z,0.82
2022-09-10T12:39:48.532Z,0.90
2022-09-10T12:42:34.205Z,0.73
2022-09-10T12:45:01.174Z,0.90
2022-09-10T12:47:33.005Z,0.98
2022-09-10T12:50:02.965Z,0.95
2022-09-10T12:52:35.782Z,0.93
2022-09-10T12:55:31.644Z,0.65
2022-09-10T12:58:16.066Z,0.60
2022-09-10T13:00:54.648Z,0.65
2022-09-10T13:03:23.411Z,0.90
2022-09-10T13:06:01.798Z,0.93
2022-09-10T13:08:39.204Z,0.70
2022-09-10T13:11:34.765Z,0.85
2022-09-10T13:14:08.134Z,0.68
2022-09-10T13:16:34.893Z,0.70
2022-09-10T13:19:16.196Z,1.02
2022-09-10T13:21:45.402Z,0.65
2022-09-10T13:27:34.461Z,0.90
2022-09-10T13:30:20.612Z,0.77
2022-09-10T13:33:07.442Z,0.60
2022-09-10T13:36:10.456Z,0.80
2022-09-10T13:39:03.344Z,0.73
2022-09-10T13:41:51.611Z,0.50
2022-09-10T13:44:49.667Z,0.50
2022-09-10T13:47:44.962Z,1.38
2022-09-10T13:50:15.844Z,0.70
2022-09-10T13:52:46.941Z,0.90
2022-09-10T13:55:19.636Z,0.80
2022-09-10T13:57:49.300Z,0.50
2022-09-10T14:00:42.302Z,0.80
2022-09-10T14:03:23.888Z,0.60
2022-09-10T14:05:54.012Z,0.85
2022-09-10T14:08:29.507Z,0.88
2022-09-10T14:11:20.789Z,0.60
2022-09-10T14:13:55.469Z,0.63
2022-09-10T14:16:34.841Z,0.50
2022-09-10T14:19:07.411Z,0.60
2022-09-10T14:21:39.551Z,0.40
2022-09-10T14:24:31.057Z,0.50
2022-09-10T14:27:18.594Z,0.77
2022-09-10T14:29:46.573Z,0.55
2022-09-10T14:32:30.895Z,0.60
2022-09-10T14:35:19.883Z,0.50
2022-09-10T14:37:47.298Z,0.90
2022-09-10T14:40:20.702Z,0.68
2022-09-10T14:42:49.286Z,0.80
2022-09-10T14:45:39.189Z,0.70
2022-09-10T14:48:24.483Z,0.90
2022-09-10T14:50:54.167Z,0.98
2022-09-10T14:53:20.649Z,0.70
2022-09-10T14:55:47.153Z,0.75
2022-09-10T14:58:16.512Z,1.02
2022-09-10T15:00:47.120Z,1.08
2022-09-10T15:03:15.855Z,1.20
2022-09-10T15:05:42.538Z,1.83
2022-09-10T15:08:09.106Z,1.65
2022-09-10T15:10:35.630Z,1.58
2022-09-10T15:13:03.281Z,3.00
2022-09-10T15:15:30.935Z,1.73
2022-09-10T15:17:57.514Z,2.58
2022-09-10T15:20:27.795Z,2.90
2022-09-10T15:22:54.609Z,3.28
2022-09-10T15:25:32.292Z,2.88
2022-09-10T15:28:01.645Z,2.47
2022-09-10T15:30:35.802Z,1.88
2022-09-10T15:33:06.810Z,1.60
2022-09-10T15:35:33.667Z,1.63
2022-09-10T15:38:01.638Z,1.75
2022-09-10T15:40:28.157Z,1.70
2022-09-10T15:42:54.711Z,2.47
2022-09-10T15:45:21.327Z,2.13
2022-09-10T15:47:47.849Z,1.50
2022-09-10T15:50:16.181Z,1.58
2022-09-10T15:52:44.729Z,2.50
2022-09-10T15:55:12.312Z,1.40
2022-09-10T15:57:40.377Z,1.50
2022-09-10T16:00:07.509Z,1.75
2022-09-10T16:02:35.910Z,1.80
2022-09-10T16:05:02.469Z,1.50
2022-09-10T16:07:29.404Z,1.75
2022-09-10T16:09:57.181Z,1.65
2022-09-10T16:12:23.711Z,1.50
2022-09-10T16:14:52.816Z,1.60
2022-09-10T16:17:21.400Z,1.70
2022-09-10T16:19:47.924Z,1.70
2022-09-10T16:22:18.666Z,1.80
2022-09-10T16:24:47.004Z,19.15
2022-09-10T16:27:13.517Z,42.78
2022-09-10T16:29:43.515Z,4.97
2022-09-10T16:32:13.244Z,8.50
2022-09-10T16:34:40.099Z,3.45
2022-09-10T16:37:06.910Z,2.88
2022-09-10T16:39:33.445Z,3.38
2022-09-10T16:41:59.979Z,6.82
2022-09-10T16:44:27.608Z,3.35
2022-09-10T16:46:54.283Z,2.60
2022-09-10T16:49:20.809Z,2.90
2022-09-10T16:51:49.139Z,2.88
2022-09-10T16:54:19.364Z,3.30
2022-09-10T16:56:47.225Z,3.33
2022-09-10T16:59:20.175Z,4.43
2022-09-10T17:01:48.327Z,3.47
2022-09-10T17:04:24.689Z,3.08
2022-09-10T17:06:54.876Z,3.00
2022-09-10T17:09:22.311Z,2.72
2022-09-10T17:11:49.068Z,3.15
2022-09-10T17:14:15.538Z,3.03
2022-09-10T17:16:43.375Z,3.17
2022-09-10T17:19:18.560Z,3.67
2022-09-10T17:21:50.729Z,3.95
2022-09-10T17:24:19.247Z,4.07
2022-09-10T17:26:45.987Z,4.05
2022-09-10T17:29:15.519Z,4.60
2022-09-10T17:31:43.343Z,4.25
2022-09-10T17:34:14.215Z,4.40
2022-09-10T17:36:43.940Z,4.40
2022-09-10T17:39:11.034Z,4.43
2022-09-10T17:41:39.448Z,4.47
2022-09-10T17:44:07.307Z,4.88
2022-09-10T17:46:35.268Z,4.38
2022-09-10T17:49:02.321Z,4.65
2022-09-10T17:51:31.448Z,4.28
2022-09-10T17:53:58.230Z,5.13
2022-09-10T17:56:26.905Z,5.00
2022-09-10T17:59:04.156Z,5.22
2022-09-10T18:01:33.610Z,5.65
2022-09-10T18:04:00.215Z,5.82
2022-09-10T18:06:29.103Z,5.65
2022-09-10T18:09:03.432Z,6.03
2022-09-10T18:11:33.710Z,4.82
2022-09-10T18:14:00.672Z,4.50
2022-09-10T18:16:29.521Z,4.30
2022-09-10T18:18:59.866Z,4.80
2022-09-10T18:21:30.905Z,3.97
2022-09-10T18:24:03.301Z,3.85
2022-09-10T18:26:31.921Z,3.90
2022-09-10T18:29:07.680Z,3.83
2022-09-10T18:31:40.920Z,3.63
2022-09-10T18:34:11.498Z,3.78
2022-09-10T18:36:38.056Z,3.47
2022-09-10T18:39:06.660Z,3.85
2022-09-10T18:41:37.908Z,4.10
2022-09-10T18:44:16.124Z,3.78
2022-09-10T18:46:44.519Z,3.33
2022-09-10T18:49:20.808Z,3.67
2022-09-10T18:51:48.712Z,4.38
2022-09-10T18:54:16.824Z,4.60
2022-09-10T18:56:48.828Z,4.68
2022-09-10T18:59:20.043Z,4.28
2022-09-10T19:01:47.920Z,4.72
2022-09-10T19:04:17.409Z,4.57
2022-09-10T19:06:46.830Z,4.80
2022-09-10T19:09:16.247Z,4.50
2022-09-10T19:11:48.918Z,4.63
2022-09-10T19:14:21.147Z,5.47
2022-09-10T19:16:49.970Z,4.90
2022-09-10T19:19:25.855Z,5.10
2022-09-10T19:21:55.817Z,4.65
2022-09-10T19:24:43.955Z,5.10
2022-09-10T19:27:12.648Z,5.07
2022-09-10T19:29:42.933Z,5.10
2022-09-10T19:32:11.099Z,7.53
2022-09-10T19:34:37.668Z,6.15
2022-09-10T19:37:04.905Z,4.75
2022-09-10T19:39:31.417Z,4.82
2022-09-10T19:41:57.883Z,5.10
2022-09-10T19:44:24.392Z,5.90
2022-09-10T19:46:50.929Z,5.90
2022-09-10T19:49:18.368Z,6.00
2022-09-10T19:51:44.892Z,6.30
2022-09-10T19:54:11.871Z,5.95
2022-09-10T19:56:41.100Z,6.10
2022-09-10T20:01:38.662Z,5.35
2022-09-10T20:04:08.640Z,5.80
2022-09-10T20:06:35.685Z,5.30
2022-09-10T20:09:04.562Z,5.57
2022-09-10T20:11:32.976Z,5.50
2022-09-10T20:14:02.223Z,5.63
2022-09-10T20:18:55.815Z,4.65
2022-09-10T20:21:26.652Z,4.85
2022-09-10T20:23:58.005Z,3.22
2022-09-10T20:26:27.494Z,2.88
2022-09-10T20:29:17.871Z,2.67
2022-09-10T20:31:46.104Z,2.70
2022-09-10T20:34:15.841Z,2.60
2022-09-10T20:36:42.684Z,2.53
2022-09-10T20:39:11.756Z,3.25
2022-09-10T20:41:39.780Z,2.50
2022-09-10T20:44:06.463Z,2.95
2022-09-10T20:46:34.690Z,2.80
2022-09-10T20:49:02.824Z,3.08
2022-09-10T20:51:31.703Z,3.23
2022-09-10T20:53:58.472Z,3.17
2022-09-10T20:56:25.281Z,3.53
2022-09-10T20:58:51.772Z,4.43
2022-09-10T21:01:21.331Z,3.90
2022-09-10T21:03:49.985Z,4.07
2022-09-10T21:06:19.485Z,4.47
2022-09-10T21:08:47.493Z,4.68
2022-09-10T21:11:16.681Z,4.93
2022-09-10T21:13:45.412Z,4.93
2022-09-10T21:16:17.577Z,5.50
2022-09-10T21:18:54.807Z,5.65
2022-09-10T21:21:25.136Z,6.10
2022-09-10T21:23:54.168Z,5.97
2022-09-10T21:26:23.522Z,6.30
2022-09-10T21:31:18.268Z,6.53
2022-09-10T21:33:45.963Z,6.80
2022-09-10T21:36:18.066Z,7.53
2022-09-10T21:38:48.417Z,7.35
2022-09-10T21:41:16.880Z,7.22
2022-09-10T21:43:45.236Z,6.88
2022-09-10T21:46:13.453Z,7.57
2022-09-10T21:48:42.197Z,7.10
2022-09-10T21:51:14.092Z,7.32
2022-09-10T21:53:42.084Z,6.93
2022-09-10T21:56:11.742Z,6.85
2022-09-10T21:58:39.421Z,8.20
2022-09-10T22:01:15.048Z,8.45
2022-09-10T22:03:41.661Z,7.78
2022-09-10T22:06:11.082Z,9.00
2022-09-10T22:08:42.219Z,8.50
2022-09-10T22:11:15.219Z,8.30
2022-09-10T22:13:42.905Z,8.48
2022-09-10T22:16:12.093Z,8.80
2022-09-10T22:18:39.675Z,9.95
2022-09-10T22:21:06.617Z,9.57
2022-09-10T22:23:35.847Z,9.05
2022-09-10T22:28:34.623Z,9.82
2022-09-10T22:31:16.961Z,8.52
2022-09-10T22:33:45.258Z,9.07
2022-09-10T22:36:18.706Z,10.00
2022-09-10T22:38:56.992Z,10.20
2022-09-10T22:41:23.472Z,10.00
2022-09-10T22:43:50.789Z,10.60
2022-09-10T22:46:17.901Z,11.18
2022-09-10T22:48:45.372Z,10.18
2022-09-10T22:51:15.067Z,9.98
2022-09-10T22:53:42.737Z,9.50
2022-09-10T22:56:10.201Z,9.77
2022-09-10T22:58:37.044Z,9.60
2022-09-10T23:01:06.391Z,9.48
2022-09-10T23:03:33.311Z,8.82
2022-09-10T23:06:06.917Z,8.93
2022-09-10T23:08:34.836Z,8.13
2022-09-10T23:11:20.824Z,8.27
2022-09-10T23:13:50.303Z,8.23
2022-09-10T23:16:19.854Z,8.60
2022-09-10T23:18:51.859Z,8.52
2022-09-10T23:21:19.487Z,8.38
2022-09-10T23:23:50.661Z,8.88
2022-09-10T23:26:17.500Z,9.30
2022-09-10T23:28:44.870Z,10.05
2022-09-10T23:31:23.478Z,10.10
2022-09-10T23:33:59.008Z,10.30
2022-09-10T23:36:27.851Z,14.98
2022-09-10T23:38:54.462Z,10.10
2022-09-10T23:41:21.460Z,10.68
2022-09-10T23:43:48.000Z,10.90
2022-09-10T23:46:14.954Z,10.57
2022-09-10T23:48:45.752Z,11.38
2022-09-10T23:51:13.996Z,11.43
2022-09-10T23:53:41.052Z,11.57
2022-09-10T23:56:08.416Z,12.55
2022-09-10T23:58:35.301Z,12.23
